Jean Anne — WDC3786 — position and weather

sailwx.info

Track history (hours):
 
Tides and Currents Weather Stations Pressure Air Temp Water Temp Dewpoint Dewpoint Depression Visibility Wind Speed Wind Dir Waves Ship Positions

Jean Anne

Owner: PASHA HAWAII TRANSPORT LINES LLC, National City, CA. More information available from US FCC via Universal Licensing System and Coast Guard Vessel Documentation Center.

Last reported at 2015-May-25 04:31 UTC. Time now 2015-May-25 05:19 UTC.
Position N 32°39' W 117°07'.

Type: Cargo ship. MMSI: 367003380.

Date/timePositionNaut miles runAvg speedWind from/ knotsBaromVisibWave heightAir tempDewpointWater temp
2015-May-25 04:31N 32°39' W 117°07'0 0.0
2015-May-25 03:31N 32°39' W 117°07'0 0.0
2015-May-25 02:31N 32°39' W 117°07'0 0.0
2015-May-25 01:31N 32°39' W 117°07'0 0.0
2015-May-25 00:31N 32°39' W 117°07'0 0.0
2015-May-24 23:28N 32°39' W 117°07'0 0.0
2015-May-24 22:31N 32°39' W 117°07'0 0.0
2015-May-24 21:31N 32°39' W 117°07'0 0.0
2015-May-24 20:31N 32°39' W 117°07'0 0.0
2015-May-24 19:31N 32°39' W 117°07'0 0.0
2015-May-24 18:31N 32°39' W 117°07'0 0.0
2015-May-24 17:31N 32°39' W 117°07'0 0.0
2015-May-24 16:31N 32°39' W 117°07'0 0.0
2015-May-24 15:31N 32°39' W 117°07'0 0.0
2015-May-24 14:31N 32°39' W 117°07'0 0.0
2015-May-24 13:31N 32°39' W 117°07'0 0.0
2015-May-24 12:31N 32°39' W 117°07'0 0.0
2015-May-24 11:31N 32°39' W 117°07'0 0.0
2015-May-24 10:31N 32°39' W 117°07'0 0.0
2015-May-24 09:31N 32°39' W 117°07'0 0.0
2015-May-24 08:31N 32°39' W 117°07'0 0.0
2015-May-24 07:31N 32°39' W 117°07'0 0.0
2015-May-24 06:34N 32°39' W 117°07'0 0.0
2015-May-24 05:34N 32°39' W 117°07'0 0.0
2015-May-24 04:33N 32°39' W 117°07'0 0.0
2015-May-24 03:33N 32°39' W 117°07'0 0.0
2015-May-24 02:33N 32°39' W 117°07'0 0.0
2015-May-24 01:33N 32°39' W 117°07'0 0.0
2015-May-24 00:33N 32°39' W 117°07'0 0.0
2015-May-23 23:33N 32°39' W 117°07'0 0.0
2015-May-23 22:33N 32°39' W 117°07'0 0.0
2015-May-23 21:33N 32°39' W 117°07'0 0.0
2015-May-23 20:33N 32°39' W 117°07'0 0.0
2015-May-23 19:33N 32°39' W 117°07'0 0.0
2015-May-23 18:33N 32°39' W 117°07'0 0.0
2015-May-23 17:33N 32°39' W 117°07'0 0.0
2015-May-23 16:33N 32°39' W 117°07'0 0.1
2015-May-23 15:33N 32°39' W 117°07'1 1.2
2015-May-23 14:33N 32°41' W 117°08'3 2.8
2015-May-23 13:33N 32°42' W 117°10'7 6.6
2015-May-23 12:33N 32°37' W 117°15'8 8.5
2015-May-23 11:33N 32°40' W 117°24'9 8.8
2015-May-23 10:33N 32°44' W 117°33'9 9.0
2015-May-23 09:33N 32°48' W 117°43'9 9.0
2015-May-23 08:33N 32°52' W 117°52'9 9.0
2015-May-23 07:33N 32°56' W 118°02'9 8.9
2015-May-23 06:33N 32°60' W 118°12'9 8.8
2015-May-23 05:33N 33°03' W 118°21'23311.1
2015-May-22 08:33N 35°34' W 121°56'1414.5
2015-May-22 07:33N 35°46' W 122°05'1414.3
2015-May-22 06:33N 35°58' W 122°15'1514.6
2015-May-22 05:33N 36°11' W 122°24'1615.5
2015-May-22 04:33N 36°26' W 122°31'1614.7
2015-May-22 03:26N 36°41' W 122°38'1514.5
2015-May-22 02:26N 36°55' W 122°44'4214.5
2015-May-21 23:33N 37°36' W 122°44'1110.8
2015-May-21 22:33N 37°46' W 122°38'1111.3
2015-May-21 21:32N 37°50' W 122°24'4 4.4
2015-May-21 20:33N 37°46' W 122°23'0 0.1
2015-May-21 19:33N 37°46' W 122°23'0 0.0
2015-May-21 18:33N 37°46' W 122°23'0 0.0
2015-May-21 17:33N 37°46' W 122°23'0 0.0
2015-May-21 16:33N 37°46' W 122°23'0 0.0
2015-May-21 15:33N 37°46' W 122°23'0 0.0
2015-May-21 14:29N 37°46' W 122°23'0 0.0
2015-May-21 13:29N 37°46' W 122°23'0 0.0
2015-May-21 12:29N 37°46' W 122°23'0 0.0
2015-May-21 11:23N 37°46' W 122°23'0 0.0
2015-May-21 10:29N 37°46' W 122°23'0 0.0
2015-May-21 09:29N 37°46' W 122°23'0 0.0
2015-May-21 08:29N 37°46' W 122°23'0 0.0
2015-May-21 07:32N 37°46' W 122°23'0 0.0
2015-May-21 06:32N 37°46' W 122°23'0 0.0
2015-May-21 05:29N 37°46' W 122°23'0 0.0
2015-May-21 04:29N 37°46' W 122°23'0 0.0
2015-May-21 03:29N 37°46' W 122°23'0 0.0
2015-May-21 02:23N 37°46' W 122°23'0 0.0
2015-May-21 01:32N 37°46' W 122°23'0 0.0
2015-May-21 00:32N 37°46' W 122°23'0 0.0
2015-May-20 23:32N 37°46' W 122°23'0 0.0
2015-May-20 22:26N 37°46' W 122°23'0 0.0
2015-May-20 21:29N 37°46' W 122°23'0 0.0
2015-May-20 20:32N 37°46' W 122°23'0 0.0
2015-May-20 19:32N 37°46' W 122°23'0 0.0
2015-May-20 18:32N 37°46' W 122°23'0 0.0
2015-May-20 17:29N 37°46' W 122°23'0 0.0
2015-May-20 16:32N 37°46' W 122°23'0 0.0
2015-May-20 15:26N 37°46' W 122°23'0 0.0
2015-May-20 14:32N 37°46' W 122°23'0 0.0
2015-May-20 13:29N 37°46' W 122°23'0 0.0
2015-May-20 12:29N 37°46' W 122°23'0 0.0
2015-May-20 11:26N 37°46' W 122°23'0 0.0
2015-May-20 10:29N 37°46' W 122°23'0 0.0
2015-May-20 09:31N 37°46' W 122°23'0 0.0
2015-May-20 08:31N 37°46' W 122°23'0 0.0
2015-May-20 07:31N 37°46' W 122°23'0 0.0
2015-May-20 06:31N 37°46' W 122°23'0 0.0
2015-May-20 05:31N 37°46' W 122°23'0 0.0
2015-May-20 04:31N 37°46' W 122°23'0 0.0
2015-May-20 03:28N 37°46' W 122°23'0 0.0
2015-May-20 02:31N 37°46' W 122°23'0 0.0
2015-May-20 01:31N 37°46' W 122°23'0 0.0
2015-May-20 00:31N 37°46' W 122°23'0 0.0
2015-May-19 23:28N 37°46' W 122°23'0 0.0
2015-May-19 22:28N 37°46' W 122°23'0 0.0
2015-May-19 21:28N 37°46' W 122°23'0 0.0
2015-May-19 20:31N 37°46' W 122°23'0 0.0
2015-May-19 19:31N 37°46' W 122°23'0 0.0
2015-May-19 18:28N 37°46' W 122°23'0 0.0
2015-May-19 17:31N 37°46' W 122°23'0 0.0
2015-May-19 16:31N 37°46' W 122°23'0 0.0
2015-May-19 15:31N 37°46' W 122°23'0 0.0
2015-May-19 14:31N 37°46' W 122°23'0 0.0
2015-May-19 13:28N 37°46' W 122°23'0 0.0
2015-May-19 12:31N 37°46' W 122°23'0 0.0
2015-May-19 11:25N 37°46' W 122°23'0 0.0
2015-May-19 10:31N 37°46' W 122°23'0 0.0
2015-May-19 09:31N 37°46' W 122°23'0 0.0
2015-May-19 08:31N 37°46' W 122°23'0 0.0
2015-May-19 07:31N 37°46' W 122°23'0 0.0
2015-May-19 06:31N 37°46' W 122°23'0 0.0
2015-May-19 05:31N 37°46' W 122°23'0 0.0
2015-May-19 04:28N 37°46' W 122°23'0 0.0
2015-May-19 03:31N 37°46' W 122°23'0 0.0
2015-May-19 02:31N 37°46' W 122°23'0 0.0
2015-May-19 01:34N 37°46' W 122°23'0 0.0
2015-May-19 00:27N 37°46' W 122°23'0 0.0
2015-May-18 23:33N 37°46' W 122°23'0 0.0
2015-May-18 22:33N 37°46' W 122°23'0 0.0
2015-May-18 21:33N 37°46' W 122°23'0 0.0
2015-May-18 20:33N 37°46' W 122°23'0 0.0
2015-May-18 19:33N 37°46' W 122°23'0 0.0
2015-May-18 18:27N 37°46' W 122°23'0 0.0
2015-May-18 17:33N 37°46' W 122°23'0 0.0
2015-May-18 16:33N 37°46' W 122°23'0 0.0
2015-May-18 15:33N 37°46' W 122°23'0 0.0
2015-May-18 14:33N 37°46' W 122°23'0 0.0
2015-May-18 13:33N 37°46' W 122°23'0 0.0
2015-May-18 12:33N 37°46' W 122°23'0 0.0
2015-May-18 11:33N 37°46' W 122°23'0 0.0
2015-May-18 10:30N 37°46' W 122°23'0 0.0
2015-May-18 09:30N 37°46' W 122°23'0 0.0
2015-May-18 08:33N 37°46' W 122°23'0 0.0
2015-May-18 07:27N 37°46' W 122°23'0 0.0
2015-May-18 06:33N 37°46' W 122°23'0 0.0
2015-May-18 05:33N 37°46' W 122°23'0 0.0
2015-May-18 04:33N 37°46' W 122°23'0 0.0
2015-May-18 03:30N 37°46' W 122°23'0 0.0
2015-May-18 02:33N 37°46' W 122°23'0 0.0
2015-May-18 01:33N 37°46' W 122°23'0 0.0
2015-May-18 00:33N 37°46' W 122°23'0 0.0
2015-May-17 23:33N 37°46' W 122°23'0 0.0
2015-May-17 22:33N 37°46' W 122°23'0 0.0
2015-May-17 21:33N 37°46' W 122°23'0 0.0
2015-May-17 20:30N 37°46' W 122°23'0 0.0
2015-May-17 19:33N 37°46' W 122°23'0 0.0
2015-May-17 18:33N 37°46' W 122°23'0 0.0
2015-May-17 17:33N 37°46' W 122°23'0 0.0
2015-May-17 16:33N 37°46' W 122°23'0 0.0
2015-May-17 15:20N 37°46' W 122°23'0 0.0
2015-May-17 14:32N 37°46' W 122°23'0 0.0
2015-May-17 13:32N 37°46' W 122°23'0 0.0
2015-May-17 12:32N 37°46' W 122°23'0 0.0
2015-May-17 11:32N 37°46' W 122°23'0 0.0
2015-May-17 10:32N 37°46' W 122°23'0 0.0
2015-May-17 09:32N 37°46' W 122°23'0 0.0
2015-May-17 08:26N 37°46' W 122°23'0 0.0
2015-May-17 07:32N 37°46' W 122°23'0 0.0
2015-May-17 06:32N 37°46' W 122°23'0 0.0
2015-May-17 05:32N 37°46' W 122°23'0 0.0
2015-May-17 04:26N 37°46' W 122°23'0 0.0
2015-May-17 03:32N 37°46' W 122°23'0 0.0
2015-May-17 02:32N 37°46' W 122°23'0 0.0
2015-May-17 01:32N 37°46' W 122°23'0 0.0
2015-May-17 00:32N 37°46' W 122°23'0 0.0
2015-May-16 23:32N 37°46' W 122°23'0 0.0
2015-May-16 22:32N 37°46' W 122°23'0 0.0
2015-May-16 21:32N 37°46' W 122°23'0 0.0
2015-May-16 20:32N 37°46' W 122°23'0 0.0
2015-May-16 19:26N 37°46' W 122°23'0 0.0
2015-May-16 18:32N 37°46' W 122°23'0 0.0
2015-May-16 17:32N 37°46' W 122°23'0 0.0
2015-May-16 16:32N 37°46' W 122°23'0 0.0
2015-May-16 15:32N 37°46' W 122°23'0 0.0
2015-May-16 14:32N 37°46' W 122°23'0 0.0
2015-May-16 13:23N 37°46' W 122°23'0 0.0
2015-May-16 12:32N 37°46' W 122°23'0 0.0
2015-May-16 11:29N 37°46' W 122°23'0 0.0
2015-May-16 10:32N 37°46' W 122°23'0 0.0
2015-May-16 09:32N 37°46' W 122°23'0 0.0
2015-May-16 08:32N 37°46' W 122°23'0 0.0
2015-May-16 07:32N 37°46' W 122°23'0 0.0
2015-May-16 06:31N 37°46' W 122°23'0 0.0
2015-May-16 05:31N 37°46' W 122°23'0 0.0
2015-May-16 04:31N 37°46' W 122°23'0 0.0
2015-May-16 03:25N 37°46' W 122°23'0 0.0
2015-May-16 02:19N 37°46' W 122°23'0 0.0
2015-May-16 01:31N 37°46' W 122°23'0 0.0
2015-May-16 00:31N 37°46' W 122°23'0 0.0
2015-May-15 23:31N 37°46' W 122°23'0 0.0
2015-May-15 22:31N 37°46' W 122°23'0 0.0
2015-May-15 21:31N 37°46' W 122°23'0 0.0
2015-May-15 20:31N 37°46' W 122°23'0 0.0
2015-May-15 19:31N 37°46' W 122°23'0 0.0
2015-May-15 18:31N 37°46' W 122°23'0 0.0
2015-May-15 17:25N 37°46' W 122°23'0 0.0
2015-May-15 16:31N 37°46' W 122°23'0 0.0
2015-May-15 15:31N 37°46' W 122°23'0 0.0
2015-May-15 14:25N 37°46' W 122°23'0 0.0
2015-May-15 13:31N 37°46' W 122°23'0 0.0
2015-May-15 12:31N 37°46' W 122°23'0 0.0
2015-May-15 11:31N 37°46' W 122°23'0 0.0
2015-May-15 10:31N 37°46' W 122°23'0 0.0
2015-May-15 09:31N 37°46' W 122°23'0 0.0
2015-May-15 08:25N 37°46' W 122°23'0 0.0
2015-May-15 07:31N 37°46' W 122°23'0 0.0
2015-May-15 06:25N 37°46' W 122°23'0 0.0
2015-May-15 05:31N 37°46' W 122°23'  
Track history (hours):
 
Tides and Currents Weather Stations Pressure Air Temp Water Temp Dewpoint Dewpoint Depression Visibility Wind Speed Wind Dir Waves Ship Positions

Jean Anne

Owner: PASHA HAWAII TRANSPORT LINES LLC, National City, CA. More information available from US FCC via Universal Licensing System and Coast Guard Vessel Documentation Center.

Last reported at 2015-May-25 04:31 UTC. Time now 2015-May-25 05:19 UTC.
Position N 32°39' W 117°07'.

Type: Cargo ship. MMSI: 367003380.

Date/timePositionNaut miles runAvg speedWind from/ knotsBaromVisibWave heightAir tempDewpointWater temp
2015-May-25 04:31N 32°39' W 117°07'0 0.0
2015-May-25 03:31N 32°39' W 117°07'0 0.0
2015-May-25 02:31N 32°39' W 117°07'0 0.0
2015-May-25 01:31N 32°39' W 117°07'0 0.0
2015-May-25 00:31N 32°39' W 117°07'0 0.0
2015-May-24 23:28N 32°39' W 117°07'0 0.0
2015-May-24 22:31N 32°39' W 117°07'0 0.0
2015-May-24 21:31N 32°39' W 117°07'0 0.0
2015-May-24 20:31N 32°39' W 117°07'0 0.0
2015-May-24 19:31N 32°39' W 117°07'0 0.0
2015-May-24 18:31N 32°39' W 117°07'0 0.0
2015-May-24 17:31N 32°39' W 117°07'0 0.0
2015-May-24 16:31N 32°39' W 117°07'0 0.0
2015-May-24 15:31N 32°39' W 117°07'0 0.0
2015-May-24 14:31N 32°39' W 117°07'0 0.0
2015-May-24 13:31N 32°39' W 117°07'0 0.0
2015-May-24 12:31N 32°39' W 117°07'0 0.0
2015-May-24 11:31N 32°39' W 117°07'0 0.0
2015-May-24 10:31N 32°39' W 117°07'0 0.0
2015-May-24 09:31N 32°39' W 117°07'0 0.0
2015-May-24 08:31N 32°39' W 117°07'0 0.0
2015-May-24 07:31N 32°39' W 117°07'0 0.0
2015-May-24 06:34N 32°39' W 117°07'0 0.0
2015-May-24 05:34N 32°39' W 117°07'0 0.0
2015-May-24 04:33N 32°39' W 117°07'0 0.0
2015-May-24 03:33N 32°39' W 117°07'0 0.0
2015-May-24 02:33N 32°39' W 117°07'0 0.0
2015-May-24 01:33N 32°39' W 117°07'0 0.0
2015-May-24 00:33N 32°39' W 117°07'0 0.0
2015-May-23 23:33N 32°39' W 117°07'0 0.0
2015-May-23 22:33N 32°39' W 117°07'0 0.0
2015-May-23 21:33N 32°39' W 117°07'0 0.0
2015-May-23 20:33N 32°39' W 117°07'0 0.0
2015-May-23 19:33N 32°39' W 117°07'0 0.0
2015-May-23 18:33N 32°39' W 117°07'0 0.0
2015-May-23 17:33N 32°39' W 117°07'0 0.0
2015-May-23 16:33N 32°39' W 117°07'0 0.1
2015-May-23 15:33N 32°39' W 117°07'1 1.2
2015-May-23 14:33N 32°41' W 117°08'3 2.8
2015-May-23 13:33N 32°42' W 117°10'7 6.6
2015-May-23 12:33N 32°37' W 117°15'8 8.5
2015-May-23 11:33N 32°40' W 117°24'9 8.8
2015-May-23 10:33N 32°44' W 117°33'9 9.0
2015-May-23 09:33N 32°48' W 117°43'9 9.0
2015-May-23 08:33N 32°52' W 117°52'9 9.0
2015-May-23 07:33N 32°56' W 118°02'9 8.9
2015-May-23 06:33N 32°60' W 118°12'9 8.8
2015-May-23 05:33N 33°03' W 118°21'23311.1
2015-May-22 08:33N 35°34' W 121°56'1414.5
2015-May-22 07:33N 35°46' W 122°05'1414.3
2015-May-22 06:33N 35°58' W 122°15'1514.6
2015-May-22 05:33N 36°11' W 122°24'1615.5
2015-May-22 04:33N 36°26' W 122°31'1614.7
2015-May-22 03:26N 36°41' W 122°38'1514.5
2015-May-22 02:26N 36°55' W 122°44'4214.5
2015-May-21 23:33N 37°36' W 122°44'1110.8
2015-May-21 22:33N 37°46' W 122°38'1111.3
2015-May-21 21:32N 37°50' W 122°24'4 4.4
2015-May-21 20:33N 37°46' W 122°23'0 0.1
2015-May-21 19:33N 37°46' W 122°23'0 0.0
2015-May-21 18:33N 37°46' W 122°23'0 0.0
2015-May-21 17:33N 37°46' W 122°23'0 0.0
2015-May-21 16:33N 37°46' W 122°23'0 0.0
2015-May-21 15:33N 37°46' W 122°23'0 0.0
2015-May-21 14:29N 37°46' W 122°23'0 0.0
2015-May-21 13:29N 37°46' W 122°23'0 0.0
2015-May-21 12:29N 37°46' W 122°23'0 0.0
2015-May-21 11:23N 37°46' W 122°23'0 0.0
2015-May-21 10:29N 37°46' W 122°23'0 0.0
2015-May-21 09:29N 37°46' W 122°23'0 0.0
2015-May-21 08:29N 37°46' W 122°23'0 0.0
2015-May-21 07:32N 37°46' W 122°23'0 0.0
2015-May-21 06:32N 37°46' W 122°23'0 0.0
2015-May-21 05:29N 37°46' W 122°23'0 0.0
2015-May-21 04:29N 37°46' W 122°23'0 0.0
2015-May-21 03:29N 37°46' W 122°23'0 0.0
2015-May-21 02:23N 37°46' W 122°23'0 0.0
2015-May-21 01:32N 37°46' W 122°23'0 0.0
2015-May-21 00:32N 37°46' W 122°23'0 0.0
2015-May-20 23:32N 37°46' W 122°23'0 0.0
2015-May-20 22:26N 37°46' W 122°23'0 0.0
2015-May-20 21:29N 37°46' W 122°23'0 0.0
2015-May-20 20:32N 37°46' W 122°23'0 0.0
2015-May-20 19:32N 37°46' W 122°23'0 0.0
2015-May-20 18:32N 37°46' W 122°23'0 0.0
2015-May-20 17:29N 37°46' W 122°23'0 0.0
2015-May-20 16:32N 37°46' W 122°23'0 0.0
2015-May-20 15:26N 37°46' W 122°23'0 0.0
2015-May-20 14:32N 37°46' W 122°23'0 0.0
2015-May-20 13:29N 37°46' W 122°23'0 0.0
2015-May-20 12:29N 37°46' W 122°23'0 0.0
2015-May-20 11:26N 37°46' W 122°23'0 0.0
2015-May-20 10:29N 37°46' W 122°23'0 0.0
2015-May-20 09:31N 37°46' W 122°23'0 0.0
2015-May-20 08:31N 37°46' W 122°23'0 0.0
2015-May-20 07:31N 37°46' W 122°23'0 0.0
2015-May-20 06:31N 37°46' W 122°23'0 0.0
2015-May-20 05:31N 37°46' W 122°23'0 0.0
2015-May-20 04:31N 37°46' W 122°23'0 0.0
2015-May-20 03:28N 37°46' W 122°23'0 0.0
2015-May-20 02:31N 37°46' W 122°23'0 0.0
2015-May-20 01:31N 37°46' W 122°23'0 0.0
2015-May-20 00:31N 37°46' W 122°23'0 0.0
2015-May-19 23:28N 37°46' W 122°23'0 0.0
2015-May-19 22:28N 37°46' W 122°23'0 0.0
2015-May-19 21:28N 37°46' W 122°23'0 0.0
2015-May-19 20:31N 37°46' W 122°23'0 0.0
2015-May-19 19:31N 37°46' W 122°23'0 0.0
2015-May-19 18:28N 37°46' W 122°23'0 0.0
2015-May-19 17:31N 37°46' W 122°23'0 0.0
2015-May-19 16:31N 37°46' W 122°23'0 0.0
2015-May-19 15:31N 37°46' W 122°23'0 0.0
2015-May-19 14:31N 37°46' W 122°23'0 0.0
2015-May-19 13:28N 37°46' W 122°23'0 0.0
2015-May-19 12:31N 37°46' W 122°23'0 0.0
2015-May-19 11:25N 37°46' W 122°23'0 0.0
2015-May-19 10:31N 37°46' W 122°23'0 0.0
2015-May-19 09:31N 37°46' W 122°23'0 0.0
2015-May-19 08:31N 37°46' W 122°23'0 0.0
2015-May-19 07:31N 37°46' W 122°23'0 0.0
2015-May-19 06:31N 37°46' W 122°23'0 0.0
2015-May-19 05:31N 37°46' W 122°23'0 0.0
2015-May-19 04:28N 37°46' W 122°23'0 0.0
2015-May-19 03:31N 37°46' W 122°23'0 0.0
2015-May-19 02:31N 37°46' W 122°23'0 0.0
2015-May-19 01:34N 37°46' W 122°23'0 0.0
2015-May-19 00:27N 37°46' W 122°23'0 0.0
2015-May-18 23:33N 37°46' W 122°23'0 0.0
2015-May-18 22:33N 37°46' W 122°23'0 0.0
2015-May-18 21:33N 37°46' W 122°23'0 0.0
2015-May-18 20:33N 37°46' W 122°23'0 0.0
2015-May-18 19:33N 37°46' W 122°23'0 0.0
2015-May-18 18:27N 37°46' W 122°23'0 0.0
2015-May-18 17:33N 37°46' W 122°23'0 0.0
2015-May-18 16:33N 37°46' W 122°23'0 0.0
2015-May-18 15:33N 37°46' W 122°23'0 0.0
2015-May-18 14:33N 37°46' W 122°23'0 0.0
2015-May-18 13:33N 37°46' W 122°23'0 0.0
2015-May-18 12:33N 37°46' W 122°23'0 0.0
2015-May-18 11:33N 37°46' W 122°23'0 0.0
2015-May-18 10:30N 37°46' W 122°23'0 0.0
2015-May-18 09:30N 37°46' W 122°23'0 0.0
2015-May-18 08:33N 37°46' W 122°23'0 0.0
2015-May-18 07:27N 37°46' W 122°23'0 0.0
2015-May-18 06:33N 37°46' W 122°23'0 0.0
2015-May-18 05:33N 37°46' W 122°23'0 0.0
2015-May-18 04:33N 37°46' W 122°23'0 0.0
2015-May-18 03:30N 37°46' W 122°23'0 0.0
2015-May-18 02:33N 37°46' W 122°23'0 0.0
2015-May-18 01:33N 37°46' W 122°23'0 0.0
2015-May-18 00:33N 37°46' W 122°23'0 0.0
2015-May-17 23:33N 37°46' W 122°23'0 0.0
2015-May-17 22:33N 37°46' W 122°23'0 0.0
2015-May-17 21:33N 37°46' W 122°23'0 0.0
2015-May-17 20:30N 37°46' W 122°23'0 0.0
2015-May-17 19:33N 37°46' W 122°23'0 0.0
2015-May-17 18:33N 37°46' W 122°23'0 0.0
2015-May-17 17:33N 37°46' W 122°23'0 0.0
2015-May-17 16:33N 37°46' W 122°23'0 0.0
2015-May-17 15:20N 37°46' W 122°23'0 0.0
2015-May-17 14:32N 37°46' W 122°23'0 0.0
2015-May-17 13:32N 37°46' W 122°23'0 0.0
2015-May-17 12:32N 37°46' W 122°23'0 0.0
2015-May-17 11:32N 37°46' W 122°23'0 0.0
2015-May-17 10:32N 37°46' W 122°23'0 0.0
2015-May-17 09:32N 37°46' W 122°23'0 0.0
2015-May-17 08:26N 37°46' W 122°23'0 0.0
2015-May-17 07:32N 37°46' W 122°23'0 0.0
2015-May-17 06:32N 37°46' W 122°23'0 0.0
2015-May-17 05:32N 37°46' W 122°23'0 0.0
2015-May-17 04:26N 37°46' W 122°23'0 0.0
2015-May-17 03:32N 37°46' W 122°23'0 0.0
2015-May-17 02:32N 37°46' W 122°23'0 0.0
2015-May-17 01:32N 37°46' W 122°23'0 0.0
2015-May-17 00:32N 37°46' W 122°23'0 0.0
2015-May-16 23:32N 37°46' W 122°23'0 0.0
2015-May-16 22:32N 37°46' W 122°23'0 0.0
2015-May-16 21:32N 37°46' W 122°23'0 0.0
2015-May-16 20:32N 37°46' W 122°23'0 0.0
2015-May-16 19:26N 37°46' W 122°23'0 0.0
2015-May-16 18:32N 37°46' W 122°23'0 0.0
2015-May-16 17:32N 37°46' W 122°23'0 0.0
2015-May-16 16:32N 37°46' W 122°23'0 0.0
2015-May-16 15:32N 37°46' W 122°23'0 0.0
2015-May-16 14:32N 37°46' W 122°23'0 0.0
2015-May-16 13:23N 37°46' W 122°23'0 0.0
2015-May-16 12:32N 37°46' W 122°23'0 0.0
2015-May-16 11:29N 37°46' W 122°23'0 0.0
2015-May-16 10:32N 37°46' W 122°23'0 0.0
2015-May-16 09:32N 37°46' W 122°23'0 0.0
2015-May-16 08:32N 37°46' W 122°23'0 0.0
2015-May-16 07:32N 37°46' W 122°23'0 0.0
2015-May-16 06:31N 37°46' W 122°23'0 0.0
2015-May-16 05:31N 37°46' W 122°23'0 0.0
2015-May-16 04:31N 37°46' W 122°23'0 0.0
2015-May-16 03:25N 37°46' W 122°23'0 0.0
2015-May-16 02:19N 37°46' W 122°23'0 0.0
2015-May-16 01:31N 37°46' W 122°23'0 0.0
2015-May-16 00:31N 37°46' W 122°23'0 0.0
2015-May-15 23:31N 37°46' W 122°23'0 0.0
2015-May-15 22:31N 37°46' W 122°23'0 0.0
2015-May-15 21:31N 37°46' W 122°23'0 0.0
2015-May-15 20:31N 37°46' W 122°23'0 0.0
2015-May-15 19:31N 37°46' W 122°23'0 0.0
2015-May-15 18:31N 37°46' W 122°23'0 0.0
2015-May-15 17:25N 37°46' W 122°23'0 0.0
2015-May-15 16:31N 37°46' W 122°23'0 0.0
2015-May-15 15:31N 37°46' W 122°23'0 0.0
2015-May-15 14:25N 37°46' W 122°23'0 0.0
2015-May-15 13:31N 37°46' W 122°23'0 0.0
2015-May-15 12:31N 37°46' W 122°23'0 0.0
2015-May-15 11:31N 37°46' W 122°23'0 0.0
2015-May-15 10:31N 37°46' W 122°23'0 0.0
2015-May-15 09:31N 37°46' W 122°23'0 0.0
2015-May-15 08:25N 37°46' W 122°23'0 0.0
2015-May-15 07:31N 37°46' W 122°23'0 0.0
2015-May-15 06:25N 37°46' W 122°23'0 0.0
2015-May-15 05:31N 37°46' W 122°23'  

Dump ship's entire track history